sensor_id;sensor_type;location;lat;lon;timestamp;pressure;altitude;pressure_sealevel;temperature;humidity
47166;BME280;32930;51.112;13.762;2022-11-12T00:00:50;100988.78;;;8.69;93.94
47166;BME280;32930;51.112;13.762;2022-11-12T00:03:16;100986.28;;;8.94;93.43
47166;BME280;32930;51.112;13.762;2022-11-12T00:05:43;100990.38;;;8.65;94.01
47166;BME280;32930;51.112;13.762;2022-11-12T00:08:09;100975.47;;;8.77;94.31
47166;BME280;32930;51.112;13.762;2022-11-12T00:10:34;100987.06;;;8.68;94.01
47166;BME280;32930;51.112;13.762;2022-11-12T00:13:00;100986.13;;;8.90;93.76
47166;BME280;32930;51.112;13.762;2022-11-12T00:15:26;100985.88;;;8.59;94.80
47166;BME280;32930;51.112;13.762;2022-11-12T00:17:52;100992.28;;;8.71;94.12
47166;BME280;32930;51.112;13.762;2022-11-12T00:22:50;100981.41;;;8.76;94.67
47166;BME280;32930;51.112;13.762;2022-11-12T00:25:16;100991.06;;;8.85;93.11
47166;BME280;32930;51.112;13.762;2022-11-12T00:27:41;100984.59;;;8.71;94.19
47166;BME280;32930;51.112;13.762;2022-11-12T00:30:07;100997.53;;;8.75;93.37
47166;BME280;32930;51.112;13.762;2022-11-12T00:32:37;100987.31;;;8.75;93.51
47166;BME280;32930;51.112;13.762;2022-11-12T00:35:04;100992.63;;;8.80;93.78
47166;BME280;32930;51.112;13.762;2022-11-12T00:40:18;100984.38;;;8.65;93.81
47166;BME280;32930;51.112;13.762;2022-11-12T00:42:44;100986.31;;;8.70;94.19
47166;BME280;32930;51.112;13.762;2022-11-12T00:45:09;100978.28;;;8.61;94.25
47166;BME280;32930;51.112;13.762;2022-11-12T00:47:35;100986.41;;;8.51;94.70
47166;BME280;32930;51.112;13.762;2022-11-12T00:50:01;100975.66;;;8.59;94.86
47166;BME280;32930;51.112;13.762;2022-11-12T00:52:26;100979.53;;;8.48;95.29
47166;BME280;32930;51.112;13.762;2022-11-12T00:54:52;100982.19;;;8.51;94.19
47166;BME280;32930;51.112;13.762;2022-11-12T00:57:17;100984.28;;;8.62;94.50
47166;BME280;32930;51.112;13.762;2022-11-12T00:59:43;100986.66;;;8.57;93.93
47166;BME280;32930;51.112;13.762;2022-11-12T01:02:08;100990.03;;;8.56;94.47
47166;BME280;32930;51.112;13.762;2022-11-12T01:04:34;100989.91;;;8.53;93.78
47166;BME280;32930;51.112;13.762;2022-11-12T01:06:59;100987.88;;;8.44;94.55
47166;BME280;32930;51.112;13.762;2022-11-12T01:09:25;100988.13;;;8.50;94.32
47166;BME280;32930;51.112;13.762;2022-11-12T01:11:51;100989.75;;;8.48;94.93
47166;BME280;32930;51.112;13.762;2022-11-12T01:16:49;100982.88;;;8.47;94.64
47166;BME280;32930;51.112;13.762;2022-11-12T01:19:15;100977.72;;;8.46;95.16
47166;BME280;32930;51.112;13.762;2022-11-12T01:21:42;100988.28;;;8.55;94.74
47166;BME280;32930;51.112;13.762;2022-11-12T01:24:08;100984.59;;;8.71;93.29
47166;BME280;32930;51.112;13.762;2022-11-12T01:26:34;100980.03;;;8.62;94.15
47166;BME280;32930;51.112;13.762;2022-11-12T01:29:00;100983.09;;;8.53;94.41
47166;BME280;32930;51.112;13.762;2022-11-12T01:31:30;100979.88;;;8.57;95.23
47166;BME280;32930;51.112;13.762;2022-11-12T01:33:58;100974.41;;;8.48;94.35
47166;BME280;32930;51.112;13.762;2022-11-12T01:36:25;100986.72;;;8.58;94.58
47166;BME280;32930;51.112;13.762;2022-11-12T01:38:52;100983.94;;;8.52;94.17
47166;BME280;32930;51.112;13.762;2022-11-12T01:41:21;100983.09;;;8.53;94.85
47166;BME280;32930;51.112;13.762;2022-11-12T01:43:47;100988.19;;;8.52;94.28
47166;BME280;32930;51.112;13.762;2022-11-12T01:46:34;100984.66;;;8.48;94.67
47166;BME280;32930;51.112;13.762;2022-11-12T01:49:04;100982.13;;;8.50;94.56
47166;BME280;32930;51.112;13.762;2022-11-12T01:54:08;100985.75;;;8.55;94.25
47166;BME280;32930;51.112;13.762;2022-11-12T01:59:31;100975.84;;;8.42;95.21
47166;BME280;32930;51.112;13.762;2022-11-12T02:04:33;100970.16;;;8.49;95.10
47166;BME280;32930;51.112;13.762;2022-11-12T02:09:36;100978.81;;;8.52;95.15
47166;BME280;32930;51.112;13.762;2022-11-12T02:12:02;100968.81;;;8.36;95.81
47166;BME280;32930;51.112;13.762;2022-11-12T02:14:29;100972.78;;;8.50;94.78
47166;BME280;32930;51.112;13.762;2022-11-12T02:16:55;100967.50;;;8.46;95.04
47166;BME280;32930;51.112;13.762;2022-11-12T02:19:21;100970.28;;;8.29;95.52
47166;BME280;32930;51.112;13.762;2022-11-12T02:21:46;100966.41;;;8.39;95.28
47166;BME280;32930;51.112;13.762;2022-11-12T02:26:41;100971.88;;;8.48;94.90
47166;BME280;32930;51.112;13.762;2022-11-12T02:29:08;100970.53;;;8.37;95.42
47166;BME280;32930;51.112;13.762;2022-11-12T02:31:34;100971.25;;;8.33;95.70
47166;BME280;32930;51.112;13.762;2022-11-12T02:34:00;100973.59;;;8.49;94.49
47166;BME280;32930;51.112;13.762;2022-11-12T02:36:27;100965.84;;;8.25;95.17
47166;BME280;32930;51.112;13.762;2022-11-12T02:38:53;100979.50;;;8.26;95.58
47166;BME280;32930;51.112;13.762;2022-11-12T02:41:19;100964.69;;;8.17;95.62
47166;BME280;32930;51.112;13.762;2022-11-12T02:43:45;100965.81;;;8.24;95.27
47166;BME280;32930;51.112;13.762;2022-11-12T02:46:11;100967.13;;;8.36;95.44
47166;BME280;32930;51.112;13.762;2022-11-12T02:51:10;100976.75;;;8.42;94.02
47166;BME280;32930;51.112;13.762;2022-11-12T02:53:35;100972.25;;;8.36;94.53
47166;BME280;32930;51.112;13.762;2022-11-12T02:56:01;100977.44;;;8.38;94.83
47166;BME280;32930;51.112;13.762;2022-11-12T02:58:27;100975.16;;;8.46;94.13
47166;BME280;32930;51.112;13.762;2022-11-12T03:00:54;100982.25;;;8.30;94.44
47166;BME280;32930;51.112;13.762;2022-11-12T03:03:20;100982.00;;;8.24;95.03
47166;BME280;32930;51.112;13.762;2022-11-12T03:05:57;100980.66;;;8.34;94.64
47166;BME280;32930;51.112;13.762;2022-11-12T03:08:24;100984.41;;;8.42;94.00
47166;BME280;32930;51.112;13.762;2022-11-12T03:10:50;100978.00;;;8.31;93.93
47166;BME280;32930;51.112;13.762;2022-11-12T03:13:16;100984.47;;;8.23;94.67
47166;BME280;32930;51.112;13.762;2022-11-12T03:15:42;100981.94;;;8.23;94.88
47166;BME280;32930;51.112;13.762;2022-11-12T03:18:07;100977.53;;;8.19;94.91
47166;BME280;32930;51.112;13.762;2022-11-12T03:20:33;100987.34;;;8.30;94.28
47166;BME280;32930;51.112;13.762;2022-11-12T03:23:04;100985.66;;;8.31;95.08
47166;BME280;32930;51.112;13.762;2022-11-12T03:25:30;100987.88;;;8.22;94.73
47166;BME280;32930;51.112;13.762;2022-11-12T03:28:01;100994.56;;;8.18;93.80
47166;BME280;32930;51.112;13.762;2022-11-12T03:33:00;100986.88;;;7.96;94.77
47166;BME280;32930;51.112;13.762;2022-11-12T03:35:26;100981.72;;;8.17;94.22
47166;BME280;32930;51.112;13.762;2022-11-12T03:37:52;100990.25;;;7.95;94.36
47166;BME280;32930;51.112;13.762;2022-11-12T03:40:18;100999.03;;;8.01;95.26
47166;BME280;32930;51.112;13.762;2022-11-12T03:42:44;100998.47;;;8.10;94.99
47166;BME280;32930;51.112;13.762;2022-11-12T03:45:11;100993.91;;;8.24;94.90
47166;BME280;32930;51.112;13.762;2022-11-12T03:47:46;100989.41;;;8.17;94.19
47166;BME280;32930;51.112;13.762;2022-11-12T03:50:13;100990.81;;;8.10;94.91
47166;BME280;32930;51.112;13.762;2022-11-12T03:52:47;100989.59;;;8.23;94.25
47166;BME280;32930;51.112;13.762;2022-11-12T03:55:15;100986.88;;;8.18;94.70
47166;BME280;32930;51.112;13.762;2022-11-12T03:57:41;100993.09;;;8.02;94.75
47166;BME280;32930;51.112;13.762;2022-11-12T04:00:09;100995.88;;;8.08;94.06
47166;BME280;32930;51.112;13.762;2022-11-12T04:02:35;100996.78;;;7.88;94.08
47166;BME280;32930;51.112;13.762;2022-11-12T04:05:02;100993.44;;;7.89;94.50
47166;BME280;32930;51.112;13.762;2022-11-12T04:08:04;100993.69;;;7.95;94.62
47166;BME280;32930;51.112;13.762;2022-11-12T04:10:49;100993.78;;;7.98;93.93
47166;BME280;32930;51.112;13.762;2022-11-12T04:13:15;100986.13;;;7.98;94.37
47166;BME280;32930;51.112;13.762;2022-11-12T04:18:37;100979.19;;;7.73;93.91
47166;BME280;32930;51.112;13.762;2022-11-12T04:21:24;100988.09;;;7.83;93.17
47166;BME280;32930;51.112;13.762;2022-11-12T04:24:08;100985.09;;;7.72;94.22
47166;BME280;32930;51.112;13.762;2022-11-12T04:26:54;100980.31;;;7.59;93.65
47166;BME280;32930;51.112;13.762;2022-11-12T04:29:19;100991.59;;;7.64;93.68
47166;BME280;32930;51.112;13.762;2022-11-12T04:32:04;100986.53;;;7.65;93.03
47166;BME280;32930;51.112;13.762;2022-11-12T04:34:29;100993.81;;;7.56;92.88
47166;BME280;32930;51.112;13.762;2022-11-12T04:36:55;100990.88;;;7.68;92.51
47166;BME280;32930;51.112;13.762;2022-11-12T04:39:20;100989.06;;;7.65;91.79
47166;BME280;32930;51.112;13.762;2022-11-12T04:41:46;100983.84;;;7.62;92.16
47166;BME280;32930;51.112;13.762;2022-11-12T04:44:30;100984.16;;;7.49;92.69
47166;BME280;32930;51.112;13.762;2022-11-12T04:47:14;100994.19;;;7.45;91.97
47166;BME280;32930;51.112;13.762;2022-11-12T04:49:39;100994.69;;;7.36;92.11
47166;BME280;32930;51.112;13.762;2022-11-12T04:52:05;100990.53;;;7.38;91.94
47166;BME280;32930;51.112;13.762;2022-11-12T04:54:31;100987.84;;;7.56;91.88
47166;BME280;32930;51.112;13.762;2022-11-12T04:56:57;100998.63;;;7.49;91.69
47166;BME280;32930;51.112;13.762;2022-11-12T04:59:23;100999.34;;;7.46;91.76
47166;BME280;32930;51.112;13.762;2022-11-12T05:01:49;101004.16;;;7.38;91.90
47166;BME280;32930;51.112;13.762;2022-11-12T05:06:47;101000.88;;;7.22;91.35
47166;BME280;32930;51.112;13.762;2022-11-12T05:11:51;101004.50;;;7.27;91.44
47166;BME280;32930;51.112;13.762;2022-11-12T05:19:31;101012.78;;;7.21;90.65
47166;BME280;32930;51.112;13.762;2022-11-12T05:22:01;101009.75;;;7.30;90.85
47166;BME280;32930;51.112;13.762;2022-11-12T05:24:32;101019.91;;;7.09;91.20
47166;BME280;32930;51.112;13.762;2022-11-12T05:26:58;101019.72;;;7.04;91.07
47166;BME280;32930;51.112;13.762;2022-11-12T05:29:23;101020.00;;;7.10;91.37
47166;BME280;32930;51.112;13.762;2022-11-12T05:31:49;101028.13;;;7.02;90.95
47166;BME280;32930;51.112;13.762;2022-11-12T05:34:15;101032.22;;;6.98;91.01
47166;BME280;32930;51.112;13.762;2022-11-12T05:39:13;101032.75;;;6.91;90.21
47166;BME280;32930;51.112;13.762;2022-11-12T05:41:39;101037.50;;;7.03;90.66
47166;BME280;32930;51.112;13.762;2022-11-12T05:44:05;101037.91;;;6.92;90.93
47166;BME280;32930;51.112;13.762;2022-11-12T05:46:30;101030.63;;;7.00;90.55
47166;BME280;32930;51.112;13.762;2022-11-12T05:48:58;101036.91;;;6.89;89.68
47166;BME280;32930;51.112;13.762;2022-11-12T05:51:24;101041.19;;;6.90;90.39
47166;BME280;32930;51.112;13.762;2022-11-12T05:56:22;101038.59;;;6.88;90.14
47166;BME280;32930;51.112;13.762;2022-11-12T06:06:25;101040.19;;;6.86;89.95
47166;BME280;32930;51.112;13.762;2022-11-12T06:08:51;101039.06;;;6.80;89.97
47166;BME280;32930;51.112;13.762;2022-11-12T06:11:16;101040.91;;;6.84;89.63
47166;BME280;32930;51.112;13.762;2022-11-12T06:13:42;101040.31;;;6.89;89.63
47166;BME280;32930;51.112;13.762;2022-11-12T06:16:08;101042.94;;;7.10;89.80
47166;BME280;32930;51.112;13.762;2022-11-12T06:18:34;101045.38;;;6.88;90.00
47166;BME280;32930;51.112;13.762;2022-11-12T06:21:08;101049.84;;;6.74;90.34
47166;BME280;32930;51.112;13.762;2022-11-12T06:23:56;101043.59;;;6.87;90.06
47166;BME280;32930;51.112;13.762;2022-11-12T06:26:24;101044.44;;;6.86;90.49
47166;BME280;32930;51.112;13.762;2022-11-12T06:28:50;101048.25;;;6.76;90.43
47166;BME280;32930;51.112;13.762;2022-11-12T06:31:20;101047.97;;;7.09;90.12
47166;BME280;32930;51.112;13.762;2022-11-12T06:33:48;101050.06;;;7.17;91.62
47166;BME280;32930;51.112;13.762;2022-11-12T06:36:17;101047.66;;;7.01;93.44
47166;BME280;32930;51.112;13.762;2022-11-12T06:38:43;101046.91;;;7.04;93.82
47166;BME280;32930;51.112;13.762;2022-11-12T06:41:11;101043.38;;;7.00;94.45
47166;BME280;32930;51.112;13.762;2022-11-12T06:43:37;101038.03;;;7.15;93.64
47166;BME280;32930;51.112;13.762;2022-11-12T06:46:14;101040.31;;;7.09;93.40
47166;BME280;32930;51.112;13.762;2022-11-12T06:48:40;101047.25;;;7.11;93.81
47166;BME280;32930;51.112;13.762;2022-11-12T06:51:17;101050.22;;;7.01;93.51
47166;BME280;32930;51.112;13.762;2022-11-12T06:53:43;101055.75;;;7.31;93.56
47166;BME280;32930;51.112;13.762;2022-11-12T06:56:09;101052.88;;;7.04;93.72
47166;BME280;32930;51.112;13.762;2022-11-12T06:58:35;101049.47;;;6.84;94.46
47166;BME280;32930;51.112;13.762;2022-11-12T07:01:10;101054.72;;;6.87;94.43
47166;BME280;32930;51.112;13.762;2022-11-12T07:03:37;101057.25;;;7.07;94.73
47166;BME280;32930;51.112;13.762;2022-11-12T07:06:05;101053.75;;;7.05;94.65
47166;BME280;32930;51.112;13.762;2022-11-12T07:08:31;101057.84;;;7.01;94.23
47166;BME280;32930;51.112;13.762;2022-11-12T07:10:59;101058.03;;;7.06;94.16
47166;BME280;32930;51.112;13.762;2022-11-12T07:13:25;101056.84;;;7.17;93.68
47166;BME280;32930;51.112;13.762;2022-11-12T07:15:56;101059.47;;;6.99;93.68
47166;BME280;32930;51.112;13.762;2022-11-12T07:18:22;101044.16;;;6.99;93.81
47166;BME280;32930;51.112;13.762;2022-11-12T07:20:50;101055.75;;;7.12;92.42
47166;BME280;32930;51.112;13.762;2022-11-12T07:23:16;101051.44;;;7.09;92.76
47166;BME280;32930;51.112;13.762;2022-11-12T07:28:25;101070.41;;;7.35;90.67
47166;BME280;32930;51.112;13.762;2022-11-12T07:31:01;101053.22;;;7.52;91.06
47166;BME280;32930;51.112;13.762;2022-11-12T07:33:28;101064.56;;;7.38;92.16
47166;BME280;32930;51.112;13.762;2022-11-12T07:36:07;101058.81;;;7.43;91.39
47166;BME280;32930;51.112;13.762;2022-11-12T07:38:38;101064.69;;;7.41;91.43
47166;BME280;32930;51.112;13.762;2022-11-12T07:41:16;101067.81;;;7.55;91.52
47166;BME280;32930;51.112;13.762;2022-11-12T07:43:45;101062.78;;;7.37;91.97
47166;BME280;32930;51.112;13.762;2022-11-12T07:46:16;101059.06;;;7.29;93.08
47166;BME280;32930;51.112;13.762;2022-11-12T07:48:43;101052.28;;;7.50;91.67
47166;BME280;32930;51.112;13.762;2022-11-12T07:51:15;101057.78;;;7.59;91.26
47166;BME280;32930;51.112;13.762;2022-11-12T07:53:42;101051.63;;;7.54;92.32
47166;BME280;32930;51.112;13.762;2022-11-12T07:58:41;101056.53;;;7.50;92.75
47166;BME280;32930;51.112;13.762;2022-11-12T08:03:48;101053.63;;;7.82;92.43
47166;BME280;32930;51.112;13.762;2022-11-12T08:06:13;101045.75;;;8.20;90.32
47166;BME280;32930;51.112;13.762;2022-11-12T08:08:39;101058.22;;;7.91;92.05
47166;BME280;32930;51.112;13.762;2022-11-12T08:11:05;101060.78;;;7.91;91.71
47166;BME280;32930;51.112;13.762;2022-11-12T08:13:30;101051.13;;;8.05;91.81
47166;BME280;32930;51.112;13.762;2022-11-12T08:15:59;101049.03;;;7.95;93.56
47166;BME280;32930;51.112;13.762;2022-11-12T08:18:25;101053.34;;;8.18;91.50
47166;BME280;32930;51.112;13.762;2022-11-12T08:20:51;101056.31;;;8.29;90.84
47166;BME280;32930;51.112;13.762;2022-11-12T08:23:17;101057.59;;;8.18;90.93
47166;BME280;32930;51.112;13.762;2022-11-12T08:25:43;101048.94;;;8.14;91.86
47166;BME280;32930;51.112;13.762;2022-11-12T08:30:41;101052.16;;;8.53;91.25
47166;BME280;32930;51.112;13.762;2022-11-12T08:33:09;101049.88;;;8.84;89.93
47166;BME280;32930;51.112;13.762;2022-11-12T08:35:36;101052.97;;;8.75;88.86
47166;BME280;32930;51.112;13.762;2022-11-12T08:38:04;101052.00;;;8.71;90.20
47166;BME280;32930;51.112;13.762;2022-11-12T08:40:32;101046.50;;;8.85;90.79
47166;BME280;32930;51.112;13.762;2022-11-12T08:43:06;101054.19;;;9.09;88.08
47166;BME280;32930;51.112;13.762;2022-11-12T08:45:34;101051.69;;;9.10;89.58
47166;BME280;32930;51.112;13.762;2022-11-12T08:48:02;101057.19;;;9.21;89.61
47166;BME280;32930;51.112;13.762;2022-11-12T08:50:29;101062.22;;;9.43;87.10
47166;BME280;32930;51.112;13.762;2022-11-12T08:53:03;101061.69;;;9.52;88.35
47166;BME280;32930;51.112;13.762;2022-11-12T08:55:30;101062.53;;;9.52;86.45
47166;BME280;32930;51.112;13.762;2022-11-12T08:57:56;101059.50;;;9.64;86.91
47166;BME280;32930;51.112;13.762;2022-11-12T09:00:31;101059.00;;;9.74;86.48
47166;BME280;32930;51.112;13.762;2022-11-12T09:03:00;101068.34;;;9.74;84.56
47166;BME280;32930;51.112;13.762;2022-11-12T09:05:27;101067.00;;;9.84;86.05
47166;BME280;32930;51.112;13.762;2022-11-12T09:08:01;101064.88;;;9.97;84.57
47166;BME280;32930;51.112;13.762;2022-11-12T09:10:27;101064.88;;;9.97;84.57
47166;BME280;32930;51.112;13.762;2022-11-12T09:12:54;101061.63;;;10.03;84.10
47166;BME280;32930;51.112;13.762;2022-11-12T09:15:21;101058.56;;;10.15;81.81
47166;BME280;32930;51.112;13.762;2022-11-12T09:17:57;101063.09;;;10.22;82.32
47166;BME280;32930;51.112;13.762;2022-11-12T09:20:23;101059.75;;;10.25;82.45
47166;BME280;32930;51.112;13.762;2022-11-12T09:22:50;101059.59;;;10.20;81.55
47166;BME280;32930;51.112;13.762;2022-11-12T09:27:44;101065.03;;;10.29;81.61
47166;BME280;32930;51.112;13.762;2022-11-12T09:30:10;101067.34;;;10.49;80.49
47166;BME280;32930;51.112;13.762;2022-11-12T09:32:36;101064.28;;;10.60;79.50
47166;BME280;32930;51.112;13.762;2022-11-12T09:35:01;101059.00;;;10.56;81.96
47166;BME280;32930;51.112;13.762;2022-11-12T09:37:27;101061.72;;;10.60;83.05
47166;BME280;32930;51.112;13.762;2022-11-12T09:39:52;101070.53;;;10.70;79.00
47166;BME280;32930;51.112;13.762;2022-11-12T09:42:21;101059.91;;;10.58;79.78
47166;BME280;32930;51.112;13.762;2022-11-12T09:44:58;101062.84;;;10.70;82.06
47166;BME280;32930;51.112;13.762;2022-11-12T09:50:17;101031.81;;;11.57;95.32
47166;BME280;32930;51.112;13.762;2022-11-12T09:52:47;101057.78;;;11.03;83.68
47166;BME280;32930;51.112;13.762;2022-11-12T09:57:47;101059.56;;;11.06;83.60
47166;BME280;32930;51.112;13.762;2022-11-12T10:00:16;101051.56;;;10.95;84.14
47166;BME280;32930;51.112;13.762;2022-11-12T10:14:13;101055.50;;;11.46;76.38
47166;BME280;32930;51.112;13.762;2022-11-12T10:25:17;101056.31;;;11.78;71.42
47166;BME280;32930;51.112;13.762;2022-11-12T10:27:44;101060.06;;;11.89;73.24
47166;BME280;32930;51.112;13.762;2022-11-12T10:30:17;101048.44;;;12.06;68.56
47166;BME280;32930;51.112;13.762;2022-11-12T10:32:46;101049.09;;;11.98;70.42
47166;BME280;32930;51.112;13.762;2022-11-12T10:35:16;101034.88;;;12.12;63.17
47166;BME280;32930;51.112;13.762;2022-11-12T10:38:01;101033.09;;;12.10;65.78
47166;BME280;32930;51.112;13.762;2022-11-12T10:40:34;101028.41;;;12.29;67.17
47166;BME280;32930;51.112;13.762;2022-11-12T10:43:20;101033.88;;;12.05;70.78
47166;BME280;32930;51.112;13.762;2022-11-12T10:45:48;101034.16;;;12.18;75.49
47166;BME280;32930;51.112;13.762;2022-11-12T10:51:21;101022.41;;;12.31;69.68
47166;BME280;32930;51.112;13.762;2022-11-12T10:56:26;101040.81;;;12.90;64.91
47166;BME280;32930;51.112;13.762;2022-11-12T10:59:20;101026.09;;;12.84;67.40
47166;BME280;32930;51.112;13.762;2022-11-12T11:06:03;101029.44;;;12.79;73.04
47166;BME280;32930;51.112;13.762;2022-11-12T11:08:47;101020.97;;;12.84;72.39
47166;BME280;32930;51.112;13.762;2022-11-12T11:11:19;101032.53;;;12.62;72.05
47166;BME280;32930;51.112;13.762;2022-11-12T11:13:47;101024.38;;;12.83;66.66
47166;BME280;32930;51.112;13.762;2022-11-12T11:16:24;101023.28;;;13.16;66.04
47166;BME280;32930;51.112;13.762;2022-11-12T11:18:54;101033.47;;;13.08;65.84
47166;BME280;32930;51.112;13.762;2022-11-12T11:33:08;101012.69;;;13.48;63.93
47166;BME280;32930;51.112;13.762;2022-11-12T11:41:13;101014.03;;;13.77;65.19
47166;BME280;32930;51.112;13.762;2022-11-12T11:52:44;100995.44;;;13.97;62.64
47166;BME280;32930;51.112;13.762;2022-11-12T12:01:27;100996.25;;;13.94;63.50
47166;BME280;32930;51.112;13.762;2022-11-12T12:09:32;100994.50;;;13.93;62.28
47166;BME280;32930;51.112;13.762;2022-11-12T12:15:03;100990.63;;;13.65;63.55
47166;BME280;32930;51.112;13.762;2022-11-12T12:20:38;100978.88;;;13.84;62.91
47166;BME280;32930;51.112;13.762;2022-11-12T12:25:43;100981.59;;;13.91;64.22
47166;BME280;32930;51.112;13.762;2022-11-12T12:30:57;100969.16;;;13.66;66.20
47166;BME280;32930;51.112;13.762;2022-11-12T12:33:28;100969.41;;;13.81;64.20
47166;BME280;32930;51.112;13.762;2022-11-12T12:35:55;100968.34;;;13.68;65.08
47166;BME280;32930;51.112;13.762;2022-11-12T12:38:40;100958.53;;;14.04;62.31
47166;BME280;32930;51.112;13.762;2022-11-12T12:44:01;100961.53;;;13.74;65.20
47166;BME280;32930;51.112;13.762;2022-11-12T12:49:03;100965.22;;;13.89;62.60
47166;BME280;32930;51.112;13.762;2022-11-12T12:54:03;100959.28;;;13.94;61.25
47166;BME280;32930;51.112;13.762;2022-11-12T12:58:55;100958.50;;;14.02;60.09
47166;BME280;32930;51.112;13.762;2022-11-12T13:04:07;100959.66;;;13.62;66.37
47166;BME280;32930;51.112;13.762;2022-11-12T13:06:37;100969.84;;;13.54;66.69
47166;BME280;32930;51.112;13.762;2022-11-12T13:09:23;100964.72;;;13.56;66.21
47166;BME280;32930;51.112;13.762;2022-11-12T13:11:54;100959.56;;;13.56;66.53
47166;BME280;32930;51.112;13.762;2022-11-12T13:17:43;100961.31;;;13.58;64.29
47166;BME280;32930;51.112;13.762;2022-11-12T13:20:31;100957.59;;;13.41;67.67
47166;BME280;32930;51.112;13.762;2022-11-12T13:22:57;100956.72;;;13.40;68.75
47166;BME280;32930;51.112;13.762;2022-11-12T13:25:26;100965.91;;;13.25;70.24
47166;BME280;32930;51.112;13.762;2022-11-12T13:35:19;100960.41;;;13.08;74.43
47166;BME280;32930;51.112;13.762;2022-11-12T13:37:58;100963.09;;;13.14;73.75
47166;BME280;32930;51.112;13.762;2022-11-12T13:45:46;100944.84;;;13.02;75.59
47166;BME280;32930;51.112;13.762;2022-11-12T13:48:20;100952.69;;;13.06;74.86
47166;BME280;32930;51.112;13.762;2022-11-12T13:50:51;100951.38;;;12.83;74.75
47166;BME280;32930;51.112;13.762;2022-11-12T13:53:23;100940.75;;;12.64;78.62
47166;BME280;32930;51.112;13.762;2022-11-12T14:03:02;100955.25;;;12.61;80.09
47166;BME280;32930;51.112;13.762;2022-11-12T14:13:42;100929.16;;;12.88;79.58
47166;BME280;32930;51.112;13.762;2022-11-12T14:16:34;100941.69;;;12.69;79.23
47166;BME280;32930;51.112;13.762;2022-11-12T14:22:20;100939.53;;;12.91;74.73
47166;BME280;32930;51.112;13.762;2022-11-12T14:24:53;100942.38;;;12.61;77.69
47166;BME280;32930;51.112;13.762;2022-11-12T14:27:33;100929.78;;;12.74;77.54
47166;BME280;32930;51.112;13.762;2022-11-12T14:32:41;100930.09;;;12.46;82.43
47166;BME280;32930;51.112;13.762;2022-11-12T14:35:24;100938.44;;;12.34;82.94
47166;BME280;32930;51.112;13.762;2022-11-12T14:40:57;100935.47;;;12.16;83.49
47166;BME280;32930;51.112;13.762;2022-11-12T14:43:44;100926.75;;;12.09;84.02
47166;BME280;32930;51.112;13.762;2022-11-12T14:46:38;100924.78;;;11.96;84.32
47166;BME280;32930;51.112;13.762;2022-11-12T14:49:20;100914.34;;;12.31;86.74
47166;BME280;32930;51.112;13.762;2022-11-12T14:51:52;100920.28;;;12.26;85.14
47166;BME280;32930;51.112;13.762;2022-11-12T14:54:33;100925.66;;;11.98;84.46
47166;BME280;32930;51.112;13.762;2022-11-12T14:57:02;100914.22;;;11.85;85.47
47166;BME280;32930;51.112;13.762;2022-11-12T14:59:30;100912.75;;;11.58;86.56
47166;BME280;32930;51.112;13.762;2022-11-12T15:02:10;100925.78;;;11.66;85.87
47166;BME280;32930;51.112;13.762;2022-11-12T15:04:51;100919.63;;;11.59;86.23
47166;BME280;32930;51.112;13.762;2022-11-12T15:07:29;100918.41;;;11.44;86.46
47166;BME280;32930;51.112;13.762;2022-11-12T15:09:59;100907.09;;;11.35;87.28
47166;BME280;32930;51.112;13.762;2022-11-12T15:12:30;100918.53;;;11.13;87.44
47166;BME280;32930;51.112;13.762;2022-11-12T15:15:08;100913.56;;;11.21;87.07
47166;BME280;32930;51.112;13.762;2022-11-12T15:20:15;100922.28;;;10.93;87.38
47166;BME280;32930;51.112;13.762;2022-11-12T15:22:49;100910.53;;;11.01;87.92
47166;BME280;32930;51.112;13.762;2022-11-12T15:27:48;100915.16;;;10.81;86.76
47166;BME280;32930;51.112;13.762;2022-11-12T15:30:28;100916.56;;;10.70;87.73
47166;BME280;32930;51.112;13.762;2022-11-12T15:35:32;100917.78;;;10.53;88.46
47166;BME280;32930;51.112;13.762;2022-11-12T15:38:06;100919.47;;;10.51;88.72
47166;BME280;32930;51.112;13.762;2022-11-12T15:40:45;100923.19;;;10.32;88.46
47166;BME280;32930;51.112;13.762;2022-11-12T15:43:22;100918.88;;;10.31;88.28
47166;BME280;32930;51.112;13.762;2022-11-12T15:45:50;100922.34;;;10.31;88.49
47166;BME280;32930;51.112;13.762;2022-11-12T15:48:16;100925.41;;;10.21;89.13
47166;BME280;32930;51.112;13.762;2022-11-12T15:50:43;100929.38;;;10.10;89.46
47166;BME280;32930;51.112;13.762;2022-11-12T15:53:09;100925.94;;;10.09;88.98
47166;BME280;32930;51.112;13.762;2022-11-12T15:55:37;100922.34;;;10.03;88.81
47166;BME280;32930;51.112;13.762;2022-11-12T16:00:37;100925.59;;;9.98;88.00
47166;BME280;32930;51.112;13.762;2022-11-12T16:05:45;100915.06;;;9.89;88.87
47166;BME280;32930;51.112;13.762;2022-11-12T16:08:11;100916.59;;;9.83;89.21
47166;BME280;32930;51.112;13.762;2022-11-12T16:10:39;100909.66;;;9.79;89.40
47166;BME280;32930;51.112;13.762;2022-11-12T16:13:06;100912.97;;;9.76;88.47
47166;BME280;32930;51.112;13.762;2022-11-12T16:15:36;100912.88;;;9.73;88.80
47166;BME280;32930;51.112;13.762;2022-11-12T16:18:02;100910.97;;;9.66;88.81
47166;BME280;32930;51.112;13.762;2022-11-12T16:20:33;100906.28;;;9.52;89.64
47166;BME280;32930;51.112;13.762;2022-11-12T16:23:00;100903.63;;;9.49;90.06
47166;BME280;32930;51.112;13.762;2022-11-12T16:25:31;100903.13;;;9.34;89.47
47166;BME280;32930;51.112;13.762;2022-11-12T16:27:59;100907.72;;;9.44;89.44
47166;BME280;32930;51.112;13.762;2022-11-12T16:30:31;100902.97;;;9.29;89.21
47166;BME280;32930;51.112;13.762;2022-11-12T16:32:59;100896.69;;;9.20;90.58
47166;BME280;32930;51.112;13.762;2022-11-12T16:35:25;100905.31;;;9.22;89.62